Time;durP1;ratioP1;P1;durP2;ratioP2;P2;SDS_P1;SDS_P2;PMS_P1;PMS_P2;Temp;Humidity;BMP_temperature;BMP_pressure;BME280_temperature;BME280_humidity;BME280_pressure;Samples;Min_cycle;Max_cycle;Signal;HPM_P1;HPM_P2
2022/12/17 13:05:58;;;;;;;53.70;28.00;;;;;;;;;;4994775;28;20037;-59
2022/12/17 13:08:24;;;;;;;54.72;29.02;;;;;;;;;;4995790;28;20022;-58
2022/12/17 13:10:50;;;;;;;52.72;28.73;;;;;;;;;;4980587;28;20041;-59
2022/12/17 13:13:22;;;;;;;51.60;28.33;;;;;;;;;;4994123;28;20492;-59
2022/12/17 13:15:56;;;;;;;46.13;25.25;;;;;;;;;;4995482;28;20483;-59
2022/12/17 13:18:31;;;;;;;47.85;26.35;;;;;;;;;;4985649;28;20026;-58
2022/12/17 13:20:58;;;;;;;48.78;27.50;;;;;;;;;;4995378;28;20109;-58
2022/12/17 13:23:28;;;;;;;53.92;29.23;;;;;;;;;;4995022;28;20045;-59
2022/12/17 13:26:22;;;;;;;47.88;26.70;;;;;;;;;;4992673;28;20031;-58
2022/12/17 13:28:49;;;;;;;49.78;26.98;;;;;;;;;;4974542;28;20045;-58
2022/12/17 13:31:15;;;;;;;47.97;27.92;;;;;;;;;;4996668;28;20025;-58
2022/12/17 13:33:50;;;;;;;48.45;28.58;;;;;;;;;;4996508;28;20393;-59
2022/12/17 13:36:15;;;;;;;45.83;26.83;;;;;;;;;;4978315;28;20472;-58
2022/12/17 13:38:40;;;;;;;47.78;26.77;;;;;;;;;;4997150;28;20030;-58
2022/12/17 13:41:06;;;;;;;45.70;27.40;;;;;;;;;;4993576;28;20160;-58
2022/12/17 13:43:33;;;;;;;48.40;28.83;;;;;;;;;;4993385;28;20034;-58
2022/12/17 13:45:58;;;;;;;48.33;27.33;;;;;;;;;;4991914;28;20056;-59
2022/12/17 13:48:25;;;;;;;48.13;28.23;;;;;;;;;;4995279;28;20408;-58
2022/12/17 13:50:58;;;;;;;44.78;27.42;;;;;;;;;;4999692;28;20034;-58
2022/12/17 13:53:24;;;;;;;49.15;29.33;;;;;;;;;;4976882;28;20097;-58
2022/12/17 13:55:51;;;;;;;53.58;28.75;;;;;;;;;;4995605;28;20034;-59
2022/12/17 13:58:25;;;;;;;52.42;28.00;;;;;;;;;;4993328;28;20050;-59
2022/12/17 14:01:02;;;;;;;52.55;28.10;;;;;;;;;;4979012;28;20477;-59
2022/12/17 14:03:27;;;;;;;52.83;27.83;;;;;;;;;;4991544;28;20040;-59
2022/12/17 14:05:54;;;;;;;54.35;28.45;;;;;;;;;;4987877;28;20045;-59
2022/12/17 14:08:20;;;;;;;51.70;28.77;;;;;;;;;;4994740;28;20029;-58
2022/12/17 14:10:50;;;;;;;50.70;28.03;;;;;;;;;;4991835;28;20041;-59
2022/12/17 14:13:16;;;;;;;53.58;29.80;;;;;;;;;;4978858;28;20139;-59
2022/12/17 14:15:47;;;;;;;50.97;28.48;;;;;;;;;;4998419;28;20113;-58
2022/12/17 14:18:14;;;;;;;50.90;28.15;;;;;;;;;;4991327;28;20040;-58
2022/12/17 14:20:40;;;;;;;51.20;28.52;;;;;;;;;;4980154;28;20045;-59
2022/12/17 14:23:07;;;;;;;55.75;29.52;;;;;;;;;;4994372;28;20030;-58
2022/12/17 14:25:34;;;;;;;50.65;27.60;;;;;;;;;;4976963;28;20555;-59
2022/12/17 14:28:02;;;;;;;51.67;28.90;;;;;;;;;;4994356;28;20052;-58
2022/12/17 14:30:37;;;;;;;59.15;30.88;;;;;;;;;;4979155;28;20042;-59
2022/12/17 14:33:02;;;;;;;56.95;30.02;;;;;;;;;;4996538;28;20095;-58
2022/12/17 14:35:29;;;;;;;58.72;29.17;;;;;;;;;;4993799;28;20045;-58
2022/12/17 14:37:55;;;;;;;59.85;28.20;;;;;;;;;;4979217;28;20053;-58
2022/12/17 14:40:22;;;;;;;57.25;28.23;;;;;;;;;;4995135;28;20117;-58
2022/12/17 14:42:47;;;;;;;58.53;28.08;;;;;;;;;;4977761;28;20034;-58
2022/12/17 14:45:12;;;;;;;57.65;26.75;;;;;;;;;;4992774;28;20040;-58
2022/12/17 14:47:38;;;;;;;57.10;26.60;;;;;;;;;;4994841;28;20030;-57
2022/12/17 14:50:12;;;;;;;50.75;25.52;;;;;;;;;;4992523;28;20034;-57
2022/12/17 14:52:45;;;;;;;63.45;26.90;;;;;;;;;;4995460;28;20092;-58
2022/12/17 14:55:31;;;;;;;59.08;25.85;;;;;;;;;;4993753;28;20042;-57
2022/12/17 14:58:07;;;;;;;60.83;27.38;;;;;;;;;;4995169;28;20550;-58
2022/12/17 15:00:33;;;;;;;60.40;26.58;;;;;;;;;;4980989;28;20066;-58
2022/12/17 15:02:58;;;;;;;64.30;27.15;;;;;;;;;;4978242;28;20125;-59
2022/12/17 15:05:24;;;;;;;58.65;25.30;;;;;;;;;;4978896;28;20040;-59
2022/12/17 15:07:50;;;;;;;55.20;25.42;;;;;;;;;;4998464;28;20507;-59
2022/12/17 15:10:18;;;;;;;65.40;26.60;;;;;;;;;;4991297;28;20038;-59
2022/12/17 15:12:43;;;;;;;59.47;25.05;;;;;;;;;;4995218;28;21152;-59
2022/12/17 15:15:12;;;;;;;60.33;25.80;;;;;;;;;;4980288;28;20037;-59
2022/12/17 15:17:38;;;;;;;58.58;25.65;;;;;;;;;;4992484;28;20044;-59
2022/12/17 15:20:03;;;;;;;58.83;25.88;;;;;;;;;;4978747;28;20512;-59
2022/12/17 15:22:29;;;;;;;63.35;24.40;;;;;;;;;;4994245;28;20076;-58
2022/12/17 15:24:54;;;;;;;61.00;25.63;;;;;;;;;;4963274;28;20102;-59
2022/12/17 15:27:19;;;;;;;59.78;24.83;;;;;;;;;;4993839;28;20064;-59
2022/12/17 15:29:45;;;;;;;58.25;25.02;;;;;;;;;;4977497;28;20061;-59
2022/12/17 15:32:18;;;;;;;60.05;25.02;;;;;;;;;;4974400;28;20677;-58
2022/12/17 15:34:43;;;;;;;63.40;24.50;;;;;;;;;;4996472;28;20030;-59
2022/12/17 15:37:09;;;;;;;75.53;30.92;;;;;;;;;;4995479;28;20030;-58
2022/12/17 15:39:34;;;;;;;86.15;30.23;;;;;;;;;;4992286;28;20026;-58
2022/12/17 15:44:43;;;;;;;64.78;26.20;;;;;;;;;;4980619;28;20065;-58
2022/12/17 15:47:09;;;;;;;60.90;24.40;;;;;;;;;;4994021;28;20400;-59
2022/12/17 15:49:34;;;;;;;58.22;22.80;;;;;;;;;;4997491;28;20164;-58
2022/12/17 15:51:59;;;;;;;49.63;21.75;;;;;;;;;;4995465;28;20091;-58
2022/12/17 15:54:25;;;;;;;53.95;22.67;;;;;;;;;;4996252;28;20038;-59
2022/12/17 15:56:51;;;;;;;67.80;26.75;;;;;;;;;;4996626;28;20030;-58
2022/12/17 15:59:16;;;;;;;66.40;29.73;;;;;;;;;;5000604;28;20030;-59
2022/12/17 16:01:42;;;;;;;60.10;27.45;;;;;;;;;;4997379;28;20026;-58
2022/12/17 16:04:07;;;;;;;69.43;29.48;;;;;;;;;;4995602;28;20065;-59
2022/12/17 16:06:32;;;;;;;63.53;26.88;;;;;;;;;;4998134;28;20491;-58
2022/12/17 16:08:58;;;;;;;63.03;25.45;;;;;;;;;;4984042;28;20058;-58
2022/12/17 16:11:23;;;;;;;59.47;24.70;;;;;;;;;;4981346;28;20073;-58
2022/12/17 16:13:52;;;;;;;82.55;35.40;;;;;;;;;;4995253;28;20441;-59
2022/12/17 16:16:17;;;;;;;60.53;26.30;;;;;;;;;;4996990;28;20045;-58
2022/12/17 16:18:43;;;;;;;66.25;25.33;;;;;;;;;;4999178;28;20409;-58
2022/12/17 16:21:08;;;;;;;58.58;24.33;;;;;;;;;;4995953;28;20112;-59
2022/12/17 16:23:34;;;;;;;59.17;24.52;;;;;;;;;;4996875;28;20029;-58
2022/12/17 16:26:01;;;;;;;59.55;24.17;;;;;;;;;;4982573;28;20058;-58
2022/12/17 16:28:27;;;;;;;66.57;25.40;;;;;;;;;;4999044;28;20298;-58
2022/12/17 16:30:58;;;;;;;62.65;25.35;;;;;;;;;;4999769;28;20824;-58
2022/12/17 16:33:23;;;;;;;60.30;24.15;;;;;;;;;;4996632;28;20057;-58
2022/12/17 16:35:50;;;;;;;57.90;23.90;;;;;;;;;;4996857;28;20040;-58
2022/12/17 16:38:16;;;;;;;57.10;22.65;;;;;;;;;;4978267;28;20034;-58
2022/12/17 16:40:41;;;;;;;56.00;22.95;;;;;;;;;;4994370;28;20025;-57
2022/12/17 16:43:07;;;;;;;51.10;21.92;;;;;;;;;;4997749;28;20395;-58
2022/12/17 16:45:32;;;;;;;55.22;23.40;;;;;;;;;;4996242;28;20030;-58
2022/12/17 16:47:58;;;;;;;65.28;27.55;;;;;;;;;;4995468;28;20042;-58
2022/12/17 16:50:26;;;;;;;89.78;36.47;;;;;;;;;;4997494;28;20034;-57
2022/12/17 16:52:51;;;;;;;88.85;36.90;;;;;;;;;;4995025;28;20473;-57
2022/12/17 16:55:16;;;;;;;98.13;41.38;;;;;;;;;;4994809;28;20044;-58
2022/12/17 16:57:42;;;;;;;90.18;37.40;;;;;;;;;;4996445;28;20034;-58
2022/12/17 17:00:08;;;;;;;77.10;32.17;;;;;;;;;;4995104;28;20497;-57
2022/12/17 17:02:33;;;;;;;73.60;30.83;;;;;;;;;;4986661;28;20099;-59
2022/12/17 17:04:58;;;;;;;69.43;28.80;;;;;;;;;;4990772;28;20036;-57
2022/12/17 17:07:24;;;;;;;63.67;27.27;;;;;;;;;;4989343;28;20038;-57
2022/12/17 17:09:49;;;;;;;65.95;26.45;;;;;;;;;;4995551;28;20030;-59
2022/12/17 17:12:14;;;;;;;62.30;26.60;;;;;;;;;;4998116;28;20034;-57
2022/12/17 17:14:42;;;;;;;58.97;24.30;;;;;;;;;;4994639;28;20034;-57
2022/12/17 17:17:08;;;;;;;49.58;20.95;;;;;;;;;;4997822;28;20025;-57
2022/12/17 17:19:33;;;;;;;54.35;22.42;;;;;;;;;;4981586;28;20388;-56
2022/12/17 17:21:58;;;;;;;61.00;23.27;;;;;;;;;;4997446;28;20141;-58
2022/12/17 17:24:24;;;;;;;55.72;23.98;;;;;;;;;;4983685;28;20040;-57
2022/12/17 17:26:50;;;;;;;53.15;21.30;;;;;;;;;;4995284;28;20448;-58
2022/12/17 17:29:16;;;;;;;44.17;20.17;;;;;;;;;;4996662;28;20528;-56
2022/12/17 17:31:41;;;;;;;48.83;19.85;;;;;;;;;;4995763;28;20022;-57
2022/12/17 17:34:11;;;;;;;54.35;22.17;;;;;;;;;;4979336;28;20938;-57
2022/12/17 17:36:36;;;;;;;48.55;21.30;;;;;;;;;;4985814;28;20040;-57
2022/12/17 17:39:02;;;;;;;48.67;21.30;;;;;;;;;;4996238;28;20030;-57
2022/12/17 17:41:29;;;;;;;49.42;20.20;;;;;;;;;;4998814;28;20033;-58
2022/12/17 17:43:58;;;;;;;60.37;21.37;;;;;;;;;;4999328;28;20116;-59
2022/12/17 17:46:24;;;;;;;43.75;20.17;;;;;;;;;;4995578;28;20113;-59
2022/12/17 17:48:50;;;;;;;47.60;20.38;;;;;;;;;;4996857;28;20110;-56
2022/12/17 17:51:19;;;;;;;54.70;23.00;;;;;;;;;;4981208;28;20087;-57
2022/12/17 17:53:46;;;;;;;50.50;20.55;;;;;;;;;;4994837;28;20034;-56
2022/12/17 17:56:15;;;;;;;53.85;21.40;;;;;;;;;;4992542;28;20034;-59
2022/12/17 17:58:51;;;;;;;45.65;21.92;;;;;;;;;;4994318;28;20037;-58
2022/12/17 18:01:23;;;;;;;46.70;21.83;;;;;;;;;;4995931;28;20072;-56
2022/12/17 18:03:50;;;;;;;53.85;22.77;;;;;;;;;;4966585;28;20048;-57
2022/12/17 18:06:15;;;;;;;59.72;25.08;;;;;;;;;;4981818;28;20129;-57
2022/12/17 18:08:41;;;;;;;56.63;21.90;;;;;;;;;;4978823;28;20101;-55
2022/12/17 18:11:07;;;;;;;50.45;23.58;;;;;;;;;;4995881;28;20678;-57
2022/12/17 18:16:20;;;;;;;50.67;20.40;;;;;;;;;;4994841;28;20049;-58
2022/12/17 18:18:45;;;;;;;68.53;26.70;;;;;;;;;;4979849;28;20053;-58
2022/12/17 18:21:12;;;;;;;196.60;56.47;;;;;;;;;;4995268;28;20516;-55
2022/12/17 18:23:39;;;;;;;68.38;28.40;;;;;;;;;;4995318;28;20038;-55
2022/12/17 18:26:05;;;;;;;58.67;23.63;;;;;;;;;;4983182;28;20453;-59
2022/12/17 18:28:30;;;;;;;46.75;20.08;;;;;;;;;;4993841;28;20031;-57
2022/12/17 18:30:56;;;;;;;46.78;21.25;;;;;;;;;;4996086;28;20048;-59
2022/12/17 18:33:21;;;;;;;53.50;20.98;;;;;;;;;;4985517;28;20030;-58
2022/12/17 18:35:46;;;;;;;44.72;20.08;;;;;;;;;;4994841;28;20034;-57
2022/12/17 18:38:12;;;;;;;55.83;24.33;;;;;;;;;;4994744;28;20427;-59
2022/12/17 18:40:37;;;;;;;53.92;22.50;;;;;;;;;;4979439;28;20381;-61
2022/12/17 18:45:46;;;;;;;59.45;21.73;;;;;;;;;;4994070;28;20065;-58
2022/12/17 18:48:11;;;;;;;55.30;21.23;;;;;;;;;;4992302;28;20057;-58
2022/12/17 18:50:37;;;;;;;55.67;21.63;;;;;;;;;;4993458;28;20473;-56
2022/12/17 18:53:02;;;;;;;55.92;21.65;;;;;;;;;;4977647;28;20898;-58
2022/12/17 18:55:27;;;;;;;41.60;21.13;;;;;;;;;;4990883;28;20046;-57
2022/12/17 18:57:53;;;;;;;46.08;20.20;;;;;;;;;;4990184;28;20048;-58
2022/12/17 19:00:18;;;;;;;47.90;21.55;;;;;;;;;;4989933;28;20306;-58
2022/12/17 19:02:43;;;;;;;43.85;20.58;;;;;;;;;;4998096;28;20033;-58
2022/12/17 19:05:09;;;;;;;56.95;23.40;;;;;;;;;;4991258;28;20374;-57
2022/12/17 19:07:34;;;;;;;53.22;21.83;;;;;;;;;;4959598;28;20125;-58
2022/12/17 19:09:59;;;;;;;45.88;20.73;;;;;;;;;;4975022;28;20036;-57
2022/12/17 19:12:25;;;;;;;51.45;22.40;;;;;;;;;;4983027;28;20472;-57
2022/12/17 19:14:50;;;;;;;57.28;23.95;;;;;;;;;;4975211;28;20041;-58
2022/12/17 19:17:15;;;;;;;44.83;19.67;;;;;;;;;;4995518;28;20064;-59
2022/12/17 19:19:41;;;;;;;64.80;23.55;;;;;;;;;;4993821;28;20068;-58
2022/12/17 19:22:07;;;;;;;79.32;34.42;;;;;;;;;;4995100;28;20041;-57
2022/12/17 19:24:35;;;;;;;66.43;29.88;;;;;;;;;;4976104;28;20421;-59
2022/12/17 19:27:02;;;;;;;66.35;26.13;;;;;;;;;;4978168;28;20065;-58
2022/12/17 19:29:27;;;;;;;85.57;34.35;;;;;;;;;;4996488;28;20065;-56
2022/12/17 19:31:52;;;;;;;78.78;33.42;;;;;;;;;;4996904;28;20030;-58
2022/12/17 19:34:18;;;;;;;69.68;28.52;;;;;;;;;;4980190;28;20100;-58
2022/12/17 19:36:43;;;;;;;59.05;23.63;;;;;;;;;;4994218;28;20058;-58
2022/12/17 19:39:13;;;;;;;57.85;26.25;;;;;;;;;;4996657;28;20033;-56
2022/12/17 19:41:39;;;;;;;63.42;25.17;;;;;;;;;;5000809;28;20551;-57
2022/12/17 19:44:05;;;;;;;61.75;26.88;;;;;;;;;;4995855;28;20037;-55
2022/12/17 19:46:32;;;;;;;64.53;26.27;;;;;;;;;;4995286;28;20046;-58
2022/12/17 19:48:58;;;;;;;57.95;22.75;;;;;;;;;;4982625;28;20038;-57
2022/12/17 19:51:24;;;;;;;70.38;28.30;;;;;;;;;;5001591;28;20026;-58
2022/12/17 19:53:50;;;;;;;59.25;24.92;;;;;;;;;;4997385;28;20030;-57
2022/12/17 19:56:16;;;;;;;43.45;21.65;;;;;;;;;;4994760;28;20539;-57
2022/12/17 19:58:42;;;;;;;54.70;22.30;;;;;;;;;;4995030;28;20031;-57
2022/12/17 20:01:11;;;;;;;62.97;22.08;;;;;;;;;;4995571;28;20488;-58
2022/12/17 20:03:37;;;;;;;45.67;20.92;;;;;;;;;;4998248;28;20042;-57
2022/12/17 20:06:03;;;;;;;40.55;20.70;;;;;;;;;;4993394;28;20093;-57
2022/12/17 20:08:29;;;;;;;69.65;23.88;;;;;;;;;;4980823;28;20109;-55
2022/12/17 20:10:54;;;;;;;51.47;21.58;;;;;;;;;;5000901;28;20066;-57
2022/12/17 20:13:19;;;;;;;51.28;22.98;;;;;;;;;;4998661;28;20041;-58
2022/12/17 20:15:45;;;;;;;95.50;33.42;;;;;;;;;;4993752;28;20053;-57
2022/12/17 20:18:11;;;;;;;81.93;31.48;;;;;;;;;;4997144;28;20096;-58
2022/12/17 20:20:36;;;;;;;76.20;27.08;;;;;;;;;;4997331;28;20394;-59
2022/12/17 20:23:01;;;;;;;80.22;33.63;;;;;;;;;;4999434;28;20034;-59
2022/12/17 20:25:27;;;;;;;78.45;32.22;;;;;;;;;;4997092;28;20042;-59
2022/12/17 20:27:52;;;;;;;59.90;27.42;;;;;;;;;;4998166;28;20025;-59
2022/12/17 20:30:17;;;;;;;69.45;27.90;;;;;;;;;;4997438;28;20038;-59
2022/12/17 20:32:43;;;;;;;59.30;25.90;;;;;;;;;;4962520;28;20038;-57
2022/12/17 20:35:08;;;;;;;57.75;26.50;;;;;;;;;;4993348;28;20477;-56
2022/12/17 20:37:33;;;;;;;61.03;25.27;;;;;;;;;;4995887;28;20141;-57
2022/12/17 20:39:59;;;;;;;61.58;28.15;;;;;;;;;;4997310;28;20532;-58
2022/12/17 20:42:27;;;;;;;55.08;23.13;;;;;;;;;;4981929;28;20518;-58
2022/12/17 20:44:52;;;;;;;56.17;24.02;;;;;;;;;;4993365;28;20027;-57
2022/12/17 20:47:18;;;;;;;51.25;21.73;;;;;;;;;;4981070;28;20038;-57
2022/12/17 20:49:43;;;;;;;62.08;25.55;;;;;;;;;;4998703;28;20089;-59
2022/12/17 20:52:08;;;;;;;71.03;25.55;;;;;;;;;;4996844;28;20030;-58
2022/12/17 20:54:33;;;;;;;53.83;25.70;;;;;;;;;;4997479;28;20031;-59
2022/12/17 20:57:00;;;;;;;66.03;27.02;;;;;;;;;;4994630;28;20030;-58
2022/12/17 20:59:25;;;;;;;54.63;24.63;;;;;;;;;;4997547;28;20039;-56
2022/12/17 21:01:50;;;;;;;64.07;24.85;;;;;;;;;;5000573;28;20041;-57
2022/12/17 21:04:15;;;;;;;62.42;26.27;;;;;;;;;;4994577;28;20034;-57
2022/12/17 21:06:45;;;;;;;66.05;25.02;;;;;;;;;;4993155;28;20030;-57
2022/12/17 21:09:11;;;;;;;61.03;24.92;;;;;;;;;;4983278;28;20115;-56
2022/12/17 21:11:37;;;;;;;52.75;23.40;;;;;;;;;;4998325;28;20030;-56
2022/12/17 21:14:07;;;;;;;70.97;26.67;;;;;;;;;;4989636;28;20057;-53
2022/12/17 21:16:33;;;;;;;57.70;26.17;;;;;;;;;;4983251;28;20045;-58
2022/12/17 21:18:59;;;;;;;60.53;25.70;;;;;;;;;;4983026;28;20656;-54
2022/12/17 21:21:26;;;;;;;62.42;25.20;;;;;;;;;;4998927;28;20018;-58
2022/12/17 21:23:52;;;;;;;61.22;25.17;;;;;;;;;;4982294;28;20036;-57
2022/12/17 21:26:19;;;;;;;70.88;28.17;;;;;;;;;;4979617;28;20030;-57
2022/12/17 21:28:45;;;;;;;70.22;24.80;;;;;;;;;;4978318;28;20663;-55
2022/12/17 21:31:15;;;;;;;58.22;23.30;;;;;;;;;;4995336;28;20041;-56
2022/12/17 21:33:41;;;;;;;57.17;23.85;;;;;;;;;;4986167;28;20457;-54
2022/12/17 21:36:06;;;;;;;54.40;23.70;;;;;;;;;;4993222;28;20034;-58
2022/12/17 21:38:31;;;;;;;63.92;26.15;;;;;;;;;;4977059;28;20021;-52
2022/12/17 21:41:07;;;;;;;75.18;27.67;;;;;;;;;;4976508;28;20518;-60
2022/12/17 21:43:33;;;;;;;66.23;26.57;;;;;;;;;;4992894;28;20533;-55
2022/12/17 21:45:59;;;;;;;63.47;25.05;;;;;;;;;;4993903;28;20105;-56
2022/12/17 21:48:24;;;;;;;49.17;24.42;;;;;;;;;;4993929;28;20030;-55
2022/12/17 21:50:49;;;;;;;54.03;24.50;;;;;;;;;;4978643;28;20046;-59
2022/12/17 21:53:14;;;;;;;82.20;30.10;;;;;;;;;;4994406;28;20144;-53
2022/12/17 21:55:40;;;;;;;72.97;30.83;;;;;;;;;;4992092;28;20218;-54
2022/12/17 21:58:07;;;;;;;73.72;30.77;;;;;;;;;;4984962;28;20053;-58
2022/12/17 22:00:33;;;;;;;80.77;32.67;;;;;;;;;;4992536;28;20628;-55
2022/12/17 22:02:58;;;;;;;81.85;32.75;;;;;;;;;;4994680;28;20546;-57
2022/12/17 22:05:23;;;;;;;73.75;32.95;;;;;;;;;;4977340;28;20065;-55
2022/12/17 22:07:49;;;;;;;78.82;31.90;;;;;;;;;;4992376;28;20060;-55
2022/12/17 22:10:14;;;;;;;74.18;32.17;;;;;;;;;;4991142;28;20480;-56
2022/12/17 22:15:23;;;;;;;71.15;29.33;;;;;;;;;;4976122;28;20672;-53
2022/12/17 22:17:49;;;;;;;95.57;38.30;;;;;;;;;;4994614;28;20136;-55
2022/12/17 22:20:15;;;;;;;102.07;41.28;;;;;;;;;;4962988;28;20479;-57
2022/12/17 22:22:40;;;;;;;85.57;36.72;;;;;;;;;;4994422;28;20036;-53
2022/12/17 22:25:06;;;;;;;66.05;32.75;;;;;;;;;;4994455;28;20032;-57
2022/12/17 22:27:32;;;;;;;76.28;33.83;;;;;;;;;;4994353;28;20476;-56
2022/12/17 22:35:35;;;;;;;71.13;30.38;;;;;;;;;;4993609;28;20066;-58
2022/12/17 22:38:01;;;;;;;81.70;30.02;;;;;;;;;;4991945;28;20077;-58
2022/12/17 22:40:27;;;;;;;65.32;29.30;;;;;;;;;;4995442;28;20061;-57
2022/12/17 22:45:37;;;;;;;81.47;33.05;;;;;;;;;;4992205;28;20076;-57
2022/12/17 22:48:03;;;;;;;76.45;30.95;;;;;;;;;;4993009;28;20510;-56
2022/12/17 22:50:28;;;;;;;83.90;32.25;;;;;;;;;;4984791;28;20034;-59
2022/12/17 22:52:53;;;;;;;73.95;28.63;;;;;;;;;;4978660;28;20942;-57
2022/12/17 22:55:19;;;;;;;75.30;29.88;;;;;;;;;;4976258;28;20030;-59
2022/12/17 22:57:44;;;;;;;70.15;29.10;;;;;;;;;;4993643;28;20463;-58
2022/12/17 23:00:30;;;;;;;87.10;35.25;;;;;;;;;;4978026;28;20136;-54
2022/12/17 23:02:56;;;;;;;79.05;33.97;;;;;;;;;;4992383;28;20046;-56
2022/12/17 23:05:21;;;;;;;84.68;32.42;;;;;;;;;;4975425;28;20509;-57
2022/12/17 23:07:47;;;;;;;66.57;30.05;;;;;;;;;;4964573;28;20550;-55
2022/12/17 23:10:13;;;;;;;75.55;30.20;;;;;;;;;;4995999;28;20034;-56
2022/12/17 23:12:50;;;;;;;81.55;26.50;;;;;;;;;;4993165;28;20028;-57
2022/12/17 23:15:17;;;;;;;81.28;30.95;;;;;;;;;;4994578;28;20026;-56
2022/12/17 23:17:42;;;;;;;62.50;28.43;;;;;;;;;;4992106;28;20045;-55
2022/12/17 23:20:08;;;;;;;76.57;30.10;;;;;;;;;;4992728;28;20038;-56
2022/12/17 23:22:33;;;;;;;76.25;30.02;;;;;;;;;;4969400;28;20045;-57
2022/12/17 23:24:59;;;;;;;68.20;27.63;;;;;;;;;;4991001;28;20041;-58
2022/12/17 23:27:24;;;;;;;82.45;34.92;;;;;;;;;;4994180;28;20400;-58
2022/12/17 23:29:49;;;;;;;64.07;29.42;;;;;;;;;;4993978;28;20030;-57
2022/12/17 23:32:15;;;;;;;66.72;29.08;;;;;;;;;;4993768;28;20083;-57
2022/12/17 23:34:40;;;;;;;74.28;29.95;;;;;;;;;;4992695;28;20038;-56
2022/12/17 23:37:05;;;;;;;61.40;27.60;;;;;;;;;;4978916;28;20035;-56
2022/12/17 23:39:31;;;;;;;55.15;25.50;;;;;;;;;;4968891;28;20377;-58
2022/12/17 23:41:56;;;;;;;56.50;26.52;;;;;;;;;;4994073;28;20500;-56
2022/12/17 23:44:21;;;;;;;63.53;27.02;;;;;;;;;;4985276;28;20042;-57
2022/12/17 23:46:47;;;;;;;61.28;28.00;;;;;;;;;;4993784;28;20034;-57
2022/12/17 23:49:14;;;;;;;71.82;34.75;;;;;;;;;;4990855;28;20030;-57
2022/12/17 23:51:40;;;;;;;73.40;30.30;;;;;;;;;;4965329;28;20029;-58
2022/12/17 23:54:05;;;;;;;76.25;31.67;;;;;;;;;;4990514;28;20099;-59
2022/12/17 23:56:30;;;;;;;78.15;34.13;;;;;;;;;;4990049;28;20113;-59
2022/12/17 23:58:57;;;;;;;69.13;29.90;;;;;;;;;;4995883;28;20079;-58
